createdAt,value
2019-05-06T00:01:24.585Z,5.70
2019-05-06T00:03:54.277Z,5.30
2019-05-06T00:06:23.816Z,5.33
2019-05-06T00:08:54.600Z,5.30
2019-05-06T00:11:24.026Z,5.67
2019-05-06T00:13:54.374Z,5.30
2019-05-06T00:16:23.955Z,5.87
2019-05-06T00:18:54.066Z,6.07
2019-05-06T00:21:24.361Z,5.80
2019-05-06T00:23:54.592Z,6.00
2019-05-06T00:26:41.192Z,6.57
2019-05-06T00:29:15.013Z,6.57
2019-05-06T00:31:44.302Z,6.50
2019-05-06T00:34:13.925Z,6.50
2019-05-06T00:36:43.756Z,6.27
2019-05-06T00:39:27.470Z,6.33
2019-05-06T00:41:58.389Z,6.17
2019-05-06T00:44:27.680Z,5.73
2019-05-06T00:46:56.974Z,6.13
2019-05-06T00:49:26.254Z,6.47
2019-05-06T00:51:55.523Z,6.90
2019-05-06T00:54:29.897Z,6.60
2019-05-06T00:56:59.165Z,6.67
2019-05-06T00:59:28.446Z,6.73
2019-05-06T01:01:57.708Z,6.10
2019-05-06T01:04:26.989Z,6.47
2019-05-06T01:06:56.263Z,7.97
2019-05-06T01:09:26.136Z,5.97
2019-05-06T01:11:57.059Z,6.13
2019-05-06T01:14:37.149Z,6.63
2019-05-06T01:17:06.423Z,7.07
2019-05-06T01:19:36.674Z,7.43
2019-05-06T01:22:06.033Z,6.43
2019-05-06T01:24:35.313Z,6.87
2019-05-06T01:27:05.667Z,6.83
2019-05-06T01:29:34.963Z,6.90
2019-05-06T01:32:04.245Z,7.00
2019-05-06T01:34:34.071Z,7.53
2019-05-06T01:37:03.730Z,6.87
2019-05-06T01:39:43.715Z,7.17
2019-05-06T01:42:15.702Z,6.73
2019-05-06T01:44:44.969Z,6.87
2019-05-06T01:47:14.652Z,7.47
2019-05-06T01:49:44.272Z,7.00
2019-05-06T01:52:14.672Z,7.47
2019-05-06T01:54:44.117Z,8.17
2019-05-06T01:57:13.786Z,7.27
2019-05-06T01:59:44.350Z,7.60
2019-05-06T02:02:14.295Z,7.63
2019-05-06T02:04:44.369Z,8.57
2019-05-06T02:07:14.446Z,7.63
2019-05-06T02:09:44.807Z,8.20
2019-05-06T02:12:14.224Z,7.27
2019-05-06T02:14:43.770Z,8.20
2019-05-06T02:17:14.431Z,8.27
2019-05-06T02:19:43.965Z,7.03
2019-05-06T02:22:17.527Z,7.77
2019-05-06T02:24:53.243Z,7.93
2019-05-06T02:27:22.199Z,8.33
2019-05-06T02:30:05.127Z,8.13
2019-05-06T02:32:45.377Z,9.40
2019-05-06T02:35:26.248Z,8.50
2019-05-06T02:37:57.009Z,7.63
2019-05-06T02:40:28.323Z,7.77
2019-05-06T02:42:57.603Z,8.63
2019-05-06T02:45:26.901Z,7.87
2019-05-06T02:47:57.800Z,8.23
2019-05-06T02:50:33.900Z,8.40
2019-05-06T02:53:02.916Z,9.93
2019-05-06T02:55:35.504Z,8.10
2019-05-06T02:58:03.261Z,8.27
2019-05-06T03:00:33.078Z,8.30
2019-05-06T03:03:02.965Z,9.30
2019-05-06T03:05:33.306Z,7.73
2019-05-06T03:08:03.299Z,8.77
2019-05-06T03:10:33.001Z,8.43
2019-05-06T03:13:03.176Z,8.40
2019-05-06T03:15:34.313Z,8.43
2019-05-06T03:18:03.479Z,9.50
2019-05-06T03:20:47.833Z,9.17
2019-05-06T03:23:18.811Z,8.50
2019-05-06T03:25:48.094Z,9.50
2019-05-06T03:28:17.677Z,8.43
2019-05-06T03:30:46.960Z,8.53
2019-05-06T03:33:50.306Z,8.30
2019-05-06T03:36:00.467Z,8.50
2019-05-06T03:38:18.200Z,8.57
2019-05-06T03:40:47.468Z,9.07
2019-05-06T03:43:16.745Z,9.40
2019-05-06T03:46:04.714Z,8.50
2019-05-06T03:48:35.696Z,8.60
2019-05-06T03:51:04.962Z,8.60
2019-05-06T03:53:36.129Z,9.20
2019-05-06T03:56:06.762Z,9.00
2019-05-06T03:58:37.500Z,9.17
2019-05-06T04:01:06.825Z,9.17
2019-05-06T04:03:47.204Z,9.47
2019-05-06T04:06:07.084Z,9.47
2019-05-06T04:08:36.799Z,9.83
2019-05-06T04:11:06.312Z,8.67
2019-05-06T04:13:36.018Z,8.67
2019-05-06T04:16:13.799Z,9.77
2019-05-06T04:18:47.882Z,9.30
2019-05-06T04:21:23.973Z,10.10
2019-05-06T04:24:04.377Z,9.73
2019-05-06T04:26:35.661Z,9.57
2019-05-06T04:29:04.945Z,9.97
2019-05-06T04:31:34.234Z,9.53
2019-05-06T04:34:12.779Z,9.30
2019-05-06T04:36:35.361Z,9.80
2019-05-06T04:39:06.092Z,10.20
2019-05-06T04:41:35.376Z,10.03
2019-05-06T04:44:05.088Z,10.10
2019-05-06T04:46:35.013Z,11.07
2019-05-06T04:49:04.689Z,9.70
2019-05-06T04:51:37.018Z,9.80
2019-05-06T04:54:05.994Z,11.30
2019-05-06T04:56:35.242Z,10.50
2019-05-06T04:59:06.366Z,10.00
2019-05-06T05:01:35.509Z,10.07
2019-05-06T05:04:22.235Z,10.43
2019-05-06T05:06:35.929Z,9.60
2019-05-06T05:09:05.781Z,9.97
2019-05-06T05:11:36.756Z,10.10
2019-05-06T05:14:22.821Z,9.50
2019-05-06T05:16:52.832Z,9.47
2019-05-06T05:19:23.044Z,9.37
2019-05-06T05:21:54.148Z,9.80
2019-05-06T05:24:24.079Z,9.67
2019-05-06T05:26:53.417Z,8.90
2019-05-06T05:29:22.910Z,9.87
2019-05-06T05:31:53.024Z,9.10
2019-05-06T05:34:26.670Z,9.60
2019-05-06T05:36:53.457Z,8.30
2019-05-06T05:39:22.824Z,9.07
2019-05-06T05:41:53.802Z,9.17
2019-05-06T05:44:27.522Z,9.03
2019-05-06T05:46:56.812Z,10.43
2019-05-06T05:49:32.504Z,9.23
2019-05-06T05:52:03.449Z,9.57
2019-05-06T05:54:33.237Z,9.67
2019-05-06T05:57:02.681Z,9.57
2019-05-06T05:59:32.911Z,10.10
2019-05-06T06:02:03.815Z,9.90
2019-05-06T06:04:33.489Z,10.40
2019-05-06T06:07:02.917Z,9.70
2019-05-06T06:09:33.888Z,10.23
2019-05-06T06:12:04.737Z,9.03
2019-05-06T06:14:43.334Z,9.70
2019-05-06T06:17:23.294Z,9.80
2019-05-06T06:19:54.218Z,9.80
2019-05-06T06:22:25.551Z,10.50
2019-05-06T06:24:54.840Z,9.47
2019-05-06T06:27:24.116Z,9.17
2019-05-06T06:29:53.408Z,10.07
2019-05-06T06:32:24.322Z,10.23
2019-05-06T06:35:10.726Z,9.57
2019-05-06T06:37:37.878Z,9.67
2019-05-06T06:40:09.729Z,9.93
2019-05-06T06:42:39.006Z,10.03
2019-05-06T06:45:08.838Z,9.43
2019-05-06T06:47:38.103Z,10.10
2019-05-06T06:50:07.641Z,9.63
2019-05-06T06:52:36.933Z,9.40
2019-05-06T06:55:07.356Z,10.67
2019-05-06T06:57:54.845Z,9.53
2019-05-06T07:00:42.461Z,10.07
2019-05-06T07:03:13.568Z,9.30
2019-05-06T07:05:44.737Z,9.43
2019-05-06T07:08:14.000Z,9.60
2019-05-06T07:10:43.501Z,9.87
2019-05-06T07:13:14.310Z,9.47
2019-05-06T07:15:43.749Z,9.17
2019-05-06T07:18:13.668Z,8.50
2019-05-06T07:20:44.747Z,9.63
2019-05-06T07:23:22.192Z,9.53
2019-05-06T07:25:53.787Z,9.67
2019-05-06T07:28:24.285Z,8.90
2019-05-06T07:30:54.571Z,10.27
2019-05-06T07:33:23.893Z,9.37
2019-05-06T07:35:53.312Z,9.17
2019-05-06T07:38:23.394Z,9.13
2019-05-06T07:41:14.460Z,8.73
2019-05-06T07:43:55.051Z,8.53
2019-05-06T07:46:33.104Z,9.30
2019-05-06T07:49:03.273Z,10.67
2019-05-06T07:51:32.806Z,10.13
2019-05-06T07:54:02.818Z,9.63
2019-05-06T07:56:32.353Z,9.57
2019-05-06T07:59:07.379Z,9.73
2019-05-06T08:01:38.615Z,9.47
2019-05-06T08:04:08.021Z,10.20
2019-05-06T08:06:37.458Z,9.53
2019-05-06T08:09:09.041Z,9.27
2019-05-06T08:11:38.376Z,9.03
2019-05-06T08:14:07.733Z,8.90
2019-05-06T08:16:41.773Z,9.87
2019-05-06T08:19:09.605Z,9.60
2019-05-06T08:21:42.708Z,10.07
2019-05-06T08:24:12.065Z,10.47
2019-05-06T08:26:42.835Z,9.47
2019-05-06T08:29:14.241Z,10.50
2019-05-06T08:31:43.196Z,10.43
2019-05-06T08:34:12.460Z,12.00
2019-05-06T08:36:43.375Z,10.60
2019-05-06T08:39:13.638Z,9.63
2019-05-06T08:41:42.905Z,9.70
2019-05-06T08:44:12.769Z,9.77
2019-05-06T08:46:43.188Z,9.77
2019-05-06T08:49:12.886Z,9.87
2019-05-06T08:51:43.812Z,9.63
2019-05-06T08:54:22.769Z,10.10
2019-05-06T08:56:52.310Z,8.63
2019-05-06T08:59:23.840Z,9.53
2019-05-06T09:01:54.438Z,8.40
2019-05-06T09:04:23.715Z,8.67
2019-05-06T09:06:53.530Z,8.33
2019-05-06T09:09:24.155Z,7.17
2019-05-06T09:11:53.715Z,5.67
2019-05-06T09:14:24.175Z,5.43
2019-05-06T09:16:54.060Z,5.60
2019-05-06T09:19:23.647Z,5.27
2019-05-06T09:21:53.528Z,5.07
2019-05-06T09:24:23.267Z,5.60
2019-05-06T09:26:54.309Z,4.87
2019-05-06T09:29:43.002Z,5.37
2019-05-06T09:32:18.160Z,5.27
2019-05-06T09:34:52.825Z,5.03
2019-05-06T09:37:23.977Z,5.70
2019-05-06T09:39:53.674Z,5.10
2019-05-06T09:42:23.361Z,5.57
2019-05-06T09:44:54.008Z,5.73
2019-05-06T09:47:25.358Z,6.53
2019-05-06T09:49:54.630Z,6.73
2019-05-06T09:52:23.907Z,6.13
2019-05-06T09:54:54.823Z,6.70
2019-05-06T09:57:26.076Z,5.93
2019-05-06T09:59:55.387Z,6.17
2019-05-06T10:02:24.674Z,6.10
2019-05-06T10:04:53.934Z,6.20
2019-05-06T10:07:23.218Z,6.33
2019-05-06T10:09:54.140Z,6.43
2019-05-06T10:12:23.410Z,6.27
2019-05-06T10:14:53.383Z,6.30
2019-05-06T10:17:22.738Z,6.90
2019-05-06T10:19:52.011Z,7.57
2019-05-06T10:22:23.300Z,7.33
2019-05-06T10:24:52.442Z,7.17
2019-05-06T10:27:22.733Z,6.93
2019-05-06T10:29:56.412Z,7.37
2019-05-06T10:32:27.335Z,7.67
2019-05-06T10:34:56.623Z,8.87
2019-05-06T10:37:59.361Z,9.27
2019-05-06T10:40:32.933Z,9.40
2019-05-06T10:43:24.861Z,9.50
2019-05-06T10:45:54.129Z,9.70
2019-05-06T10:48:23.414Z,10.10
2019-05-06T10:50:54.573Z,10.03
2019-05-06T10:53:24.737Z,9.87
2019-05-06T10:55:55.655Z,9.13
2019-05-06T10:58:25.019Z,10.20
2019-05-06T11:00:55.985Z,9.40
2019-05-06T11:03:27.732Z,10.13
2019-05-06T11:05:57.263Z,9.73
2019-05-06T11:08:26.555Z,9.70
2019-05-06T11:10:55.844Z,10.17
2019-05-06T11:13:25.149Z,10.00
2019-05-06T11:15:55.657Z,10.37
2019-05-06T11:18:26.059Z,9.53
2019-05-06T11:20:56.283Z,10.67
2019-05-06T11:23:25.794Z,9.93
2019-05-06T11:25:55.088Z,10.33
2019-05-06T11:28:42.835Z,10.80
2019-05-06T11:31:29.092Z,9.17
2019-05-06T11:34:09.224Z,8.23
2019-05-06T11:36:52.530Z,8.90
2019-05-06T11:39:23.208Z,7.33
2019-05-06T11:42:06.232Z,8.20
2019-05-06T11:44:24.170Z,7.87
2019-05-06T11:46:53.555Z,8.83
2019-05-06T11:49:23.394Z,7.80
2019-05-06T11:51:53.808Z,7.47
2019-05-06T11:54:24.580Z,7.17
2019-05-06T11:56:58.227Z,7.60
2019-05-06T11:59:25.031Z,7.87
2019-05-06T12:02:02.659Z,7.07
2019-05-06T12:04:32.902Z,6.80
2019-05-06T12:07:10.782Z,6.63
2019-05-06T12:09:33.532Z,6.80
2019-05-06T12:12:03.415Z,7.77
2019-05-06T12:14:33.858Z,6.53
2019-05-06T12:17:03.127Z,6.57
2019-05-06T12:19:32.600Z,6.60
2019-05-06T12:22:02.030Z,6.23
2019-05-06T12:24:31.407Z,6.00
2019-05-06T12:27:03.076Z,5.93
2019-05-06T12:29:32.382Z,5.83
2019-05-06T12:32:06.317Z,6.20
2019-05-06T12:34:35.592Z,5.80
2019-05-06T12:37:06.501Z,5.67
2019-05-06T12:39:35.803Z,5.83
2019-05-06T12:42:06.958Z,6.90
2019-05-06T12:44:38.130Z,5.53
2019-05-06T12:47:13.487Z,5.50
2019-05-06T12:49:42.867Z,5.70
2019-05-06T12:52:12.414Z,5.70
2019-05-06T12:54:42.932Z,5.67
2019-05-06T12:57:12.773Z,5.70
2019-05-06T12:59:42.720Z,6.20
2019-05-06T13:02:13.176Z,6.10
2019-05-06T13:04:51.596Z,6.10
2019-05-06T13:07:15.376Z,6.33
2019-05-06T13:09:45.445Z,5.70
2019-05-06T13:12:16.541Z,6.10
2019-05-06T13:14:45.837Z,5.87
2019-05-06T13:17:16.775Z,6.43
2019-05-06T13:19:46.072Z,6.03
2019-05-06T13:22:16.998Z,6.03
2019-05-06T13:24:46.282Z,6.10
2019-05-06T13:27:17.205Z,5.67
2019-05-06T13:29:46.508Z,6.93
2019-05-06T13:32:17.427Z,6.53
2019-05-06T13:34:46.701Z,6.47
2019-05-06T13:37:17.087Z,6.27
2019-05-06T13:39:46.442Z,6.53
2019-05-06T13:42:17.418Z,6.13
2019-05-06T13:44:46.693Z,6.43
2019-05-06T13:47:22.824Z,6.77
2019-05-06T13:49:55.608Z,6.80
2019-05-06T13:52:25.077Z,7.43
2019-05-06T13:54:54.407Z,6.93
2019-05-06T13:57:23.746Z,7.33
2019-05-06T13:59:53.459Z,7.90
2019-05-06T14:02:43.484Z,7.97
2019-05-06T14:05:12.251Z,7.40
2019-05-06T14:07:43.303Z,7.23
2019-05-06T14:10:13.202Z,6.93
2019-05-06T14:12:42.857Z,7.30
2019-05-06T14:15:13.458Z,7.10
2019-05-06T14:17:42.821Z,6.73
2019-05-06T14:20:13.256Z,6.57
2019-05-06T14:22:43.897Z,6.50
2019-05-06T14:25:18.625Z,6.80
2019-05-06T14:27:49.573Z,6.67
2019-05-06T14:30:32.870Z,6.57
2019-05-06T14:33:03.323Z,7.33
2019-05-06T14:35:32.834Z,6.93
2019-05-06T14:38:03.314Z,6.17
2019-05-06T14:40:34.605Z,6.63
2019-05-06T14:43:05.242Z,6.93
2019-05-06T14:45:34.626Z,6.97
2019-05-06T14:48:03.918Z,7.10
2019-05-06T14:50:45.119Z,6.17
2019-05-06T14:53:04.306Z,6.90
2019-05-06T14:55:35.302Z,6.23
2019-05-06T14:58:04.676Z,6.43
2019-05-06T15:00:35.060Z,6.93
2019-05-06T15:03:04.407Z,7.57
2019-05-06T15:05:36.193Z,6.73
2019-05-06T15:08:04.831Z,8.30
2019-05-06T15:10:34.120Z,7.17
2019-05-06T15:13:03.404Z,6.70
2019-05-06T15:15:32.798Z,6.73
2019-05-06T15:18:02.905Z,6.57
2019-05-06T15:20:34.235Z,7.07
2019-05-06T15:23:04.443Z,6.73
2019-05-06T15:25:33.989Z,6.37
2019-05-06T15:28:03.275Z,6.90
2019-05-06T15:30:37.178Z,7.63
2019-05-06T15:33:08.119Z,7.97
2019-05-06T15:35:45.037Z,7.27
2019-05-06T15:38:15.957Z,7.47
2019-05-06T15:40:45.243Z,7.40
2019-05-06T15:43:14.530Z,8.07
2019-05-06T15:45:43.831Z,7.27
2019-05-06T15:48:13.174Z,7.77
2019-05-06T15:50:45.647Z,7.17
2019-05-06T15:53:13.474Z,7.83
2019-05-06T15:55:43.733Z,8.70
2019-05-06T15:58:13.360Z,9.33
2019-05-06T16:00:42.644Z,10.07
2019-05-06T16:03:12.925Z,10.60
2019-05-06T16:05:43.670Z,11.13
2019-05-06T16:08:13.212Z,11.40
2019-05-06T16:10:51.961Z,12.77
2019-05-06T16:13:13.497Z,12.87
2019-05-06T16:15:42.965Z,13.40
2019-05-06T16:18:12.970Z,13.60
2019-05-06T16:20:42.451Z,14.47
2019-05-06T16:23:19.366Z,15.33
2019-05-06T16:25:48.641Z,14.57
2019-05-06T16:28:17.929Z,14.67
2019-05-06T16:30:47.225Z,14.40
2019-05-06T16:33:18.831Z,15.73
2019-05-06T16:35:47.484Z,14.37
2019-05-06T16:38:16.763Z,15.60
2019-05-06T16:40:46.052Z,15.00
2019-05-06T16:43:15.344Z,14.57
2019-05-06T16:45:45.458Z,16.93
2019-05-06T16:48:14.960Z,14.67
2019-05-06T16:50:45.320Z,14.57
2019-05-06T16:53:14.598Z,14.73
2019-05-06T16:56:02.274Z,15.27
2019-05-06T16:58:47.060Z,15.63
2019-05-06T17:01:15.211Z,17.43
2019-05-06T17:03:46.310Z,15.57
2019-05-06T17:06:17.234Z,18.23
2019-05-06T17:08:46.745Z,16.03
2019-05-06T17:11:26.936Z,16.47
2019-05-06T17:13:47.181Z,17.27
2019-05-06T17:16:16.593Z,17.07
2019-05-06T17:18:45.894Z,16.20
2019-05-06T17:21:15.180Z,16.13
2019-05-06T17:23:44.464Z,17.13
2019-05-06T17:26:13.741Z,17.93
2019-05-06T17:28:47.629Z,17.03
2019-05-06T17:31:34.882Z,18.73
2019-05-06T17:34:12.921Z,18.33
2019-05-06T17:36:42.270Z,17.87
2019-05-06T17:39:12.016Z,18.67
2019-05-06T17:41:48.315Z,18.77
2019-05-06T17:44:13.077Z,18.63
2019-05-06T17:46:49.794Z,18.07
2019-05-06T17:49:23.626Z,19.30
2019-05-06T17:51:54.421Z,17.87
2019-05-06T17:54:25.880Z,17.57
2019-05-06T17:56:54.697Z,17.67
2019-05-06T17:59:23.985Z,17.93
2019-05-06T18:01:57.791Z,18.43
2019-05-06T18:04:27.099Z,16.23
2019-05-06T18:06:56.370Z,16.63
2019-05-06T18:09:25.660Z,17.20
2019-05-06T18:11:58.984Z,16.67
2019-05-06T18:14:25.924Z,16.57
2019-05-06T18:16:55.231Z,16.27
2019-05-06T18:19:24.678Z,15.23
2019-05-06T18:21:54.024Z,14.43
2019-05-06T18:24:23.309Z,14.33
2019-05-06T18:26:52.973Z,12.87
2019-05-06T18:29:22.466Z,12.83
2019-05-06T18:31:52.471Z,12.17
2019-05-06T18:34:23.206Z,13.07
2019-05-06T18:36:52.733Z,12.60
2019-05-06T18:39:22.433Z,11.13
2019-05-06T18:41:53.118Z,11.43
2019-05-06T18:44:22.892Z,11.40
2019-05-06T18:46:53.031Z,11.40
2019-05-06T18:49:22.588Z,11.20
2019-05-06T18:51:54.116Z,12.03
2019-05-06T18:54:25.660Z,13.00
2019-05-06T18:56:53.855Z,15.60
2019-05-06T18:59:23.236Z,21.00
2019-05-06T19:01:53.982Z,25.67
2019-05-06T19:04:38.241Z,43.30
2019-05-06T19:07:12.886Z,15.27
2019-05-06T19:09:42.821Z,10.60
2019-05-06T19:12:12.770Z,10.10
2019-05-06T19:14:43.349Z,8.97
2019-05-06T19:17:13.249Z,10.40
2019-05-06T19:19:42.969Z,9.27
2019-05-06T19:22:14.005Z,9.60
2019-05-06T19:24:44.794Z,9.60
2019-05-06T19:27:15.161Z,9.80
2019-05-06T19:29:44.445Z,10.37
2019-05-06T19:32:14.782Z,10.23
2019-05-06T19:34:44.060Z,10.40
2019-05-06T19:37:13.337Z,10.63
2019-05-06T19:39:43.164Z,10.60
2019-05-06T19:42:13.081Z,11.80
2019-05-06T19:44:43.132Z,11.03
2019-05-06T19:47:13.503Z,11.83
2019-05-06T19:49:42.782Z,12.20
2019-05-06T19:52:12.088Z,10.63
2019-05-06T19:54:42.482Z,11.70
2019-05-06T19:57:12.464Z,11.90
2019-05-06T19:59:42.917Z,11.60
2019-05-06T20:02:12.888Z,11.70
2019-05-06T20:04:44.508Z,11.70
2019-05-06T20:07:34.198Z,11.87
2019-05-06T20:10:23.012Z,10.67
2019-05-06T20:13:01.628Z,10.87
2019-05-06T20:15:30.465Z,10.07
2019-05-06T20:17:59.766Z,11.50
2019-05-06T20:20:31.775Z,10.60
2019-05-06T20:23:00.102Z,10.67
2019-05-06T20:25:29.384Z,10.53
2019-05-06T20:27:58.674Z,11.10
2019-05-06T20:30:28.025Z,11.67
2019-05-06T20:32:57.298Z,11.30
2019-05-06T20:35:26.590Z,10.87
2019-05-06T20:37:55.900Z,11.83
2019-05-06T20:40:25.242Z,11.37
2019-05-06T20:42:54.527Z,11.43
2019-05-06T20:45:24.256Z,10.50
2019-05-06T20:47:53.644Z,11.63
2019-05-06T20:50:22.992Z,10.93
2019-05-06T20:52:52.346Z,11.23
2019-05-06T20:55:22.934Z,11.17
2019-05-06T20:57:52.999Z,11.83
2019-05-06T21:00:23.582Z,11.90
2019-05-06T21:02:53.543Z,11.30
2019-05-06T21:05:22.973Z,12.00
2019-05-06T21:07:52.718Z,11.57
2019-05-06T21:10:22.216Z,11.67
2019-05-06T21:12:53.216Z,12.40
2019-05-06T21:15:23.090Z,12.37
2019-05-06T21:17:52.492Z,11.57
2019-05-06T21:20:21.868Z,12.03
2019-05-06T21:22:52.785Z,12.87
2019-05-06T21:25:22.685Z,12.53
2019-05-06T21:27:53.203Z,12.63
2019-05-06T21:30:22.630Z,12.30
2019-05-06T21:32:52.150Z,12.17
2019-05-06T21:35:22.214Z,12.33
2019-05-06T21:37:52.954Z,12.77
2019-05-06T21:40:22.392Z,13.57
2019-05-06T21:42:51.666Z,13.13
2019-05-06T21:45:22.119Z,13.50
2019-05-06T21:47:53.012Z,13.20
2019-05-06T21:50:22.880Z,13.30
2019-05-06T21:52:52.217Z,13.57
2019-05-06T21:55:22.750Z,13.77
2019-05-06T21:57:52.933Z,13.90
2019-05-06T22:00:24.362Z,14.07
2019-05-06T22:02:55.250Z,13.57
2019-05-06T22:05:24.542Z,14.03
2019-05-06T22:07:53.832Z,14.03
2019-05-06T22:10:25.163Z,14.70
2019-05-06T22:12:54.101Z,13.90
2019-05-06T22:15:23.383Z,14.63
2019-05-06T22:17:54.460Z,15.07
2019-05-06T22:20:23.888Z,14.43
2019-05-06T22:22:53.160Z,14.70
2019-05-06T22:25:22.460Z,14.80
2019-05-06T22:27:52.025Z,14.27
2019-05-06T22:30:23.676Z,15.70
2019-05-06T22:32:52.768Z,14.67
2019-05-06T22:35:23.087Z,14.63
2019-05-06T22:37:53.074Z,15.43
2019-05-06T22:40:23.881Z,15.43
2019-05-06T22:42:53.297Z,14.33
2019-05-06T22:45:22.575Z,14.30
2019-05-06T22:47:53.493Z,14.70
2019-05-06T22:50:22.866Z,14.00
2019-05-06T22:52:52.886Z,14.63
2019-05-06T22:55:22.305Z,14.17
2019-05-06T22:57:52.963Z,14.37
2019-05-06T23:00:25.278Z,14.77
2019-05-06T23:02:56.194Z,14.73
2019-05-06T23:05:25.487Z,15.47
2019-05-06T23:07:54.781Z,15.57
2019-05-06T23:10:24.834Z,14.83
2019-05-06T23:12:54.368Z,14.57
2019-05-06T23:15:23.660Z,15.27
2019-05-06T23:17:52.934Z,15.23
2019-05-06T23:20:24.231Z,14.90
2019-05-06T23:22:53.199Z,15.37
2019-05-06T23:25:22.506Z,15.93
2019-05-06T23:27:52.962Z,15.30
2019-05-06T23:30:23.598Z,15.57
2019-05-06T23:32:53.130Z,15.27
2019-05-06T23:35:23.414Z,15.67
2019-05-06T23:38:29.180Z,16.27
2019-05-06T23:41:35.156Z,16.60
2019-05-06T23:44:45.807Z,16.00
